Time;durP1;ratioP1;P1;durP2;ratioP2;P2;SDS_P1;SDS_P2;PMS_P1;PMS_P2;Temp;Humidity;BMP_temperature;BMP_pressure;BME280_temperature;BME280_humidity;BME280_pressure;Samples;Min_cycle;Max_cycle;Signal;HPM_P1;HPM_P2
2022/03/21 00:04:19;;;;;;;25.03;13.27;;;;;;;4.41;41.06;103200.15;5135509;55;1138994;-69
2022/03/21 00:09:25;;;;;;;27.60;13.40;;;;;;;4.35;41.18;103194.52;5141657;55;1175874;-70
2022/03/21 00:14:31;;;;;;;41.27;14.90;;;;;;;4.32;41.19;103206.32;5152941;56;1250116;-72
2022/03/21 00:19:37;;;;;;;32.60;15.17;;;;;;;4.30;41.23;103195.42;5147518;55;1138762;-72
2022/03/21 00:24:43;;;;;;;32.33;15.10;;;;;;;4.27;41.37;103201.59;5143252;55;1138833;-70
2022/03/21 00:29:49;;;;;;;33.07;14.27;;;;;;;4.22;41.48;103196.37;5144970;56;1138763;-71
2022/03/21 00:34:55;;;;;;;33.47;14.67;;;;;;;4.10;41.96;103191.69;5141522;55;1138670;-71
2022/03/21 00:40:00;;;;;;;36.95;14.68;;;;;;;4.03;41.79;103203.94;5145574;55;1138831;-71
2022/03/21 00:45:14;;;;;;;34.98;17.12;;;;;;;3.95;42.33;103204.89;5147728;56;1139007;-70
2022/03/21 00:50:24;;;;;;;32.53;16.87;;;;;;;3.89;42.20;103199.25;5135892;55;1138971;-71
2022/03/21 00:55:30;;;;;;;33.37;15.33;;;;;;;3.88;42.15;103195.76;5148197;55;1139085;-70
2022/03/21 01:00:36;;;;;;;38.40;15.57;;;;;;;3.86;42.27;103190.10;5153407;55;1138723;-71
2022/03/21 01:05:42;;;;;;;36.20;16.40;;;;;;;3.82;42.27;103191.86;5148468;56;1138931;-71
2022/03/21 01:10:48;;;;;;;37.40;16.48;;;;;;;3.78;42.37;103194.09;5141518;55;1138835;-69
2022/03/21 01:15:54;;;;;;;36.13;16.37;;;;;;;3.74;42.55;103190.19;5151556;55;1138919;-70
2022/03/21 01:21:00;;;;;;;33.98;15.63;;;;;;;3.66;42.64;103192.87;5130294;55;1138789;-70
2022/03/21 01:26:06;;;;;;;44.13;16.03;;;;;;;3.63;42.78;103188.09;5032672;56;1138853;-72
2022/03/21 01:31:12;;;;;;;36.00;14.83;;;;;;;3.63;42.78;103192.02;5036147;56;1138727;-70
2022/03/21 01:36:18;;;;;;;39.38;15.55;;;;;;;3.56;42.95;103192.91;5042833;56;1139145;-69
2022/03/21 01:41:24;;;;;;;37.47;15.67;;;;;;;3.49;43.02;103181.63;5041741;56;1138969;-71
2022/03/21 01:46:30;;;;;;;32.10;15.10;;;;;;;3.49;43.08;103185.56;5041669;56;1138880;-70
2022/03/21 01:51:39;;;;;;;36.37;15.20;;;;;;;3.48;43.33;103191.67;5034412;56;1138851;-71
2022/03/21 01:56:47;;;;;;;34.33;15.53;;;;;;;3.41;43.47;103178.17;5045019;56;1139097;-71
2022/03/21 02:01:55;;;;;;;38.73;15.63;;;;;;;3.34;43.52;103171.25;5038030;56;1139922;-71
2022/03/21 02:07:01;;;;;;;41.02;17.00;;;;;;;3.27;43.87;103178.68;5039730;56;1138843;-70
2022/03/21 02:12:08;;;;;;;39.17;18.03;;;;;;;3.21;43.88;103178.73;5046460;56;1138807;-70
2022/03/21 02:17:19;;;;;;;34.50;15.77;;;;;;;3.14;43.98;103181.36;5115299;56;1138829;-70
2022/03/21 02:22:41;;;;;;;37.83;16.47;;;;;;;3.08;44.04;103172.22;5146586;56;1138670;-71
2022/03/21 02:27:48;;;;;;;35.37;15.50;;;;;;;3.07;44.21;103171.79;5140373;56;1139108;-71
2022/03/21 02:32:55;;;;;;;38.45;16.80;;;;;;;3.06;44.33;103171.35;5147637;56;1138758;-71
2022/03/21 02:38:02;;;;;;;38.58;17.12;;;;;;;3.01;44.74;103163.98;5128407;56;1139031;-69
2022/03/21 02:43:07;;;;;;;37.33;15.97;;;;;;;3.01;45.07;103163.98;5145307;56;1138712;-69
2022/03/21 02:48:14;;;;;;;37.53;16.57;;;;;;;2.97;45.48;103169.22;5146256;56;1138712;-70
2022/03/21 02:53:21;;;;;;;36.00;16.10;;;;;;;2.87;46.38;103157.95;5139860;56;1138662;-70
2022/03/21 02:58:27;;;;;;;38.10;15.97;;;;;;;2.78;46.83;103165.36;5138036;56;1138962;-70
2022/03/21 03:03:34;;;;;;;29.53;13.67;;;;;;;2.71;47.47;103165.40;5129669;56;1138934;-70
2022/03/21 03:08:42;;;;;;;32.60;13.67;;;;;;;2.51;48.73;103169.35;5133155;56;1138719;-70
2022/03/21 03:13:48;;;;;;;30.57;15.10;;;;;;;2.33;49.55;103171.55;5138702;56;1138864;-71
2022/03/21 03:18:55;;;;;;;35.00;15.00;;;;;;;2.28;50.25;103170.70;5138826;56;1138806;-72
2022/03/21 03:24:02;;;;;;;42.25;15.88;;;;;;;2.21;50.04;103168.95;5131970;56;1138874;-71
2022/03/21 03:29:08;;;;;;;36.08;15.45;;;;;;;2.17;50.06;103175.05;5141669;56;1138873;-70
2022/03/21 03:34:14;;;;;;;39.00;17.23;;;;;;;2.15;50.24;103169.37;5144080;56;1138931;-71
2022/03/21 03:39:20;;;;;;;39.47;16.50;;;;;;;2.16;50.49;103167.20;5149161;56;1138829;-71
2022/03/21 03:44:25;;;;;;;41.17;18.13;;;;;;;2.18;50.46;103166.34;5135095;56;1138831;-70
2022/03/21 03:49:31;;;;;;;39.97;17.20;;;;;;;2.15;50.56;103165.03;5135522;56;1138995;-71
2022/03/21 03:54:37;;;;;;;36.07;16.20;;;;;;;2.15;50.68;103170.69;5145590;56;1139182;-71
2022/03/21 03:59:43;;;;;;;37.50;15.63;;;;;;;2.10;50.76;103165.05;5138169;56;1138827;-71
2022/03/21 04:04:49;;;;;;;34.80;15.20;;;;;;;2.07;50.53;103171.58;5135476;56;1138997;-70
2022/03/21 04:09:55;;;;;;;39.08;15.86;;;;;;;1.94;50.02;103176.79;5131021;56;1139050;-71
2022/03/21 04:15:01;;;;;;;43.95;17.07;;;;;;;1.86;50.35;103170.25;5128286;56;1138884;-71
2022/03/21 04:20:08;;;;;;;48.23;15.63;;;;;;;1.86;50.61;103171.98;5149271;56;1138863;-71
2022/03/21 04:25:14;;;;;;;36.00;15.90;;;;;;;1.80;50.50;103179.39;5145960;56;1138910;-71
2022/03/21 04:30:23;;;;;;;44.27;17.90;;;;;;;1.72;50.69;103184.58;5147655;56;1139051;-71
2022/03/21 04:35:29;;;;;;;32.90;15.17;;;;;;;1.67;50.69;103179.81;5147967;56;1138926;-71
2022/03/21 04:40:35;;;;;;;31.53;15.80;;;;;;;1.63;50.77;103167.62;5142233;55;1139101;-71
2022/03/21 04:45:42;;;;;;;42.40;16.87;;;;;;;1.64;51.02;103183.71;5136733;55;1139169;-71
2022/03/21 04:50:48;;;;;;;36.53;18.67;;;;;;;1.61;51.10;103182.40;5136848;55;1138899;-72
2022/03/21 04:55:54;;;;;;;44.07;18.97;;;;;;;1.53;51.63;103180.66;5137857;55;1138791;-71
2022/03/21 05:01:00;;;;;;;40.27;17.60;;;;;;;1.49;51.77;103186.29;5134852;55;1138800;-72
2022/03/21 05:06:07;;;;;;;36.10;16.70;;;;;;;1.44;51.96;103184.09;5140714;55;1139091;-71
2022/03/21 05:11:13;;;;;;;47.43;20.67;;;;;;;1.41;51.87;103191.90;5139479;55;1138833;-73
2022/03/21 05:16:19;;;;;;;74.23;23.83;;;;;;;1.40;52.32;103191.02;5133535;55;1139279;-72
2022/03/21 05:21:24;;;;;;;163.30;47.57;;;;;;;1.39;52.13;103187.98;5139318;55;1138823;-71
2022/03/21 05:31:53;;;;;;;;;;;;;;;1.54;52.05;103204.10;5151366;56;1141027;-70
2022/03/21 05:36:59;;;;;;;69.53;27.90;;;;;;;1.55;52.10;103202.36;5155321;56;971971;-71
2022/03/21 05:42:05;;;;;;;101.02;31.30;;;;;;;1.57;52.02;103207.16;5147746;56;1253515;-71
2022/03/21 05:47:11;;;;;;;84.40;26.43;;;;;;;1.62;52.13;103208.05;5141502;56;1140961;-71
2022/03/21 05:52:17;;;;;;;68.83;31.63;;;;;;;1.65;52.10;103208.94;5139929;56;1138984;-71
2022/03/21 05:57:22;;;;;;;49.27;26.17;;;;;;;1.74;52.08;103207.64;5099730;56;1138830;-71
2022/03/21 06:02:30;;;;;;;44.17;21.23;;;;;;;1.86;52.10;103207.21;5138972;56;1138986;-71
2022/03/21 06:07:35;;;;;;;53.70;24.13;;;;;;;2.05;51.94;103215.08;5147171;56;1138820;-71
2022/03/21 06:12:42;;;;;;;47.87;21.50;;;;;;;2.30;51.81;103213.33;5145392;56;1138919;-70
2022/03/21 06:17:48;;;;;;;52.07;21.63;;;;;;;2.51;51.30;103225.95;5144854;56;1138813;-71
2022/03/21 06:22:53;;;;;;;48.57;21.43;;;;;;;2.68;51.06;103217.22;5139253;56;1138847;-70
2022/03/21 06:28:01;;;;;;;54.67;25.47;;;;;;;2.91;51.10;103211.92;5141908;56;1138948;-71
2022/03/21 06:33:07;;;;;;;100.07;44.55;;;;;;;3.15;50.26;103204.02;5143416;56;1139101;-71
2022/03/21 06:38:12;;;;;;;159.18;76.75;;;;;;;3.35;50.35;103208.30;5142049;56;1141116;-71
2022/03/21 06:43:20;;;;;;;67.27;27.07;;;;;;;3.59;50.04;103213.40;5141872;56;1141089;-71
2022/03/21 06:48:34;;;;;;;61.83;23.63;;;;;;;3.78;49.42;103212.42;5143260;56;1139080;-71
2022/03/21 06:53:34;;;;;;;51.20;24.73;;;;;;;3.99;48.94;103216.63;5141209;56;1139290;-71
2022/03/21 06:58:41;;;;;;;52.83;24.67;;;;;;;4.12;48.51;103205.20;5141234;56;1138824;-71
2022/03/21 07:03:47;;;;;;;51.33;23.60;;;;;;;4.37;47.63;103211.53;5142740;56;1138960;-71
2022/03/21 07:08:53;;;;;;;71.30;27.17;;;;;;;4.61;47.67;103217.84;5152460;56;1138755;-70
2022/03/21 07:13:59;;;;;;;43.30;20.07;;;;;;;4.91;47.02;103213.59;5152995;56;1138796;-71
2022/03/21 07:19:06;;;;;;;66.53;31.68;;;;;;;5.19;45.37;103219.41;5151775;56;1138914;-71
2022/03/21 07:24:13;;;;;;;51.58;22.85;;;;;;;5.48;45.66;103218.17;5141916;56;1138868;-71
2022/03/21 07:29:19;;;;;;;33.40;19.20;;;;;;;5.74;44.78;103217.80;5142833;56;1138809;-71
2022/03/21 07:34:25;;;;;;;51.43;24.43;;;;;;;6.04;43.48;103214.75;5146807;55;1138824;-71
2022/03/21 07:39:34;;;;;;;39.83;18.73;;;;;;;6.31;44.25;103213.43;5142002;55;1138797;-71
2022/03/21 07:50:02;;;;;;;38.70;18.60;;;;;;;6.88;43.20;103203.61;5143663;55;1138964;-70
2022/03/21 07:55:08;;;;;;;43.70;18.50;;;;;;;7.25;41.72;103210.33;5142082;55;1139005;-71
2022/03/21 08:00:15;;;;;;;35.30;19.12;;;;;;;7.54;41.45;103202.25;5139349;55;1138899;-71
2022/03/21 08:05:22;;;;;;;58.83;25.50;;;;;;;7.75;39.55;103200.02;5145682;56;1138920;-71
2022/03/21 08:10:29;;;;;;;37.30;17.73;;;;;;;7.90;39.47;103205.38;5201793;55;1138950;-72
2022/03/21 08:15:42;;;;;;;29.60;14.90;;;;;;;8.01;38.69;103211.70;5194612;55;1138931;-71
2022/03/21 08:20:43;;;;;;;30.12;15.00;;;;;;;8.17;37.92;103209.11;5207395;55;1138758;-71
2022/03/21 08:25:52;;;;;;;38.17;17.80;;;;;;;8.41;37.79;103208.97;5153656;56;1138681;-71
2022/03/21 08:30:58;;;;;;;37.07;15.37;;;;;;;8.65;36.95;103209.66;5151555;56;1139089;-71
2022/03/21 08:36:03;;;;;;;35.10;16.43;;;;;;;8.97;39.24;103203.51;5141870;56;1139067;-71
2022/03/21 08:41:09;;;;;;;32.07;15.07;;;;;;;9.25;35.23;103201.39;5145252;56;1138842;-71
2022/03/21 08:46:15;;;;;;;32.27;17.17;;;;;;;9.36;35.90;103200.16;5139409;55;1138787;-71
2022/03/21 08:51:20;;;;;;;30.50;15.20;;;;;;;9.47;34.92;103198.53;5143472;56;1138826;-71
2022/03/21 08:56:28;;;;;;;23.17;13.37;;;;;;;9.72;34.02;103198.18;5143254;55;1138937;-71
2022/03/21 09:01:34;;;;;;;22.10;12.83;;;;;;;9.88;33.72;103209.14;5139657;56;1140975;-71
2022/03/21 09:06:40;;;;;;;30.23;13.73;;;;;;;10.04;33.03;103194.51;5144853;55;1141202;-71
2022/03/21 09:11:46;;;;;;;37.67;15.63;;;;;;;10.13;32.17;103200.80;5143710;55;1142942;-71
2022/03/21 09:16:52;;;;;;;33.23;15.40;;;;;;;10.29;33.56;103192.39;5142688;55;1142966;-71
2022/03/21 09:21:59;;;;;;;35.70;17.63;;;;;;;10.66;31.80;103184.06;5121940;55;1143126;-71
2022/03/21 09:27:05;;;;;;;39.00;18.40;;;;;;;10.59;30.37;103178.11;5043394;56;1143188;-71
2022/03/21 09:32:11;;;;;;;25.70;13.32;;;;;;;10.58;30.77;103175.05;5053384;56;1143311;-71
2022/03/21 09:37:17;;;;;;;25.33;14.80;;;;;;;10.68;29.87;103180.91;5045303;56;1143427;-71
2022/03/21 09:42:23;;;;;;;21.43;12.27;;;;;;;10.82;31.08;103178.16;5035846;56;1143165;-71
2022/03/21 09:52:52;;;;;;;19.20;12.07;;;;;;;11.32;29.78;103172.73;5053556;56;1142869;-71
2022/03/21 09:57:59;;;;;;;21.30;11.17;;;;;;;11.50;28.51;103156.13;5045674;56;1143192;-71
2022/03/21 10:03:05;;;;;;;17.93;10.03;;;;;;;11.56;28.68;103147.95;5044394;56;1143075;-72
2022/03/21 10:08:22;;;;;;;19.80;7.67;;;;;;;11.62;29.47;103149.47;5040121;56;1143086;-72
2022/03/21 10:13:32;;;;;;;14.83;8.83;;;;;;;11.83;26.48;103138.50;5035288;56;1140923;-72
2022/03/21 10:18:41;;;;;;;16.73;8.57;;;;;;;11.89;26.80;103136.47;5045393;56;1141210;-71
2022/03/21 10:24:06;;;;;;;19.87;10.20;;;;;;;11.99;26.89;103134.29;5092941;56;1141015;-71
2022/03/21 10:29:12;;;;;;;14.78;9.25;;;;;;;12.13;25.67;103132.38;5151124;56;1143078;-71
2022/03/21 10:34:22;;;;;;;16.52;11.80;;;;;;;12.15;25.89;103121.24;5139677;55;1140847;-71
2022/03/21 10:39:29;;;;;;;22.23;15.13;;;;;;;12.22;27.98;103126.20;5147387;55;1142942;-71
2022/03/21 10:44:36;;;;;;;23.73;11.73;;;;;;;12.28;26.73;103108.70;5153145;56;1143085;-71
2022/03/21 10:49:43;;;;;;;33.43;17.47;;;;;;;12.40;25.91;103115.72;5140352;55;1143205;-71
2022/03/21 10:54:53;;;;;;;20.60;13.07;;;;;;;12.53;25.96;103099.64;5138645;55;1143053;-71
2022/03/21 11:00:26;;;;;;;17.77;10.00;;;;;;;12.74;25.89;103104.00;5131772;56;1142997;-71
2022/03/21 11:05:30;;;;;;;21.37;10.33;;;;;;;12.79;25.92;103095.37;5139055;56;1142938;-71
2022/03/21 11:10:37;;;;;;;26.20;13.70;;;;;;;13.14;26.08;103094.20;5144466;55;1142877;-71
2022/03/21 11:15:43;;;;;;;22.33;12.70;;;;;;;13.16;26.23;103091.00;5145347;56;1142954;-72
2022/03/21 11:20:49;;;;;;;25.97;15.70;;;;;;;13.18;25.91;103097.98;5148348;55;1143069;-72
2022/03/21 11:26:25;;;;;;;19.47;12.00;;;;;;;13.27;26.07;103092.24;5120105;56;1143186;-72
2022/03/21 11:31:51;;;;;;;17.23;8.97;;;;;;;13.37;24.92;103076.23;5117902;56;1143442;-71
2022/03/21 11:36:59;;;;;;;11.77;8.90;;;;;;;13.41;24.90;103082.73;5118536;56;1140952;-72
2022/03/21 11:42:12;;;;;;;16.77;9.50;;;;;;;13.50;23.79;103075.16;5103682;56;1141055;-71
2022/03/21 11:47:28;;;;;;;20.68;9.90;;;;;;;13.56;23.85;103060.72;5118549;56;1141045;-71
2022/03/21 11:52:54;;;;;;;16.23;8.77;;;;;;;13.53;24.12;103048.42;5113343;56;1140846;-72
2022/03/21 11:58:06;;;;;;;16.27;8.57;;;;;;;13.73;24.05;103037.66;5117567;56;1141050;-71
2022/03/21 12:03:27;;;;;;;17.05;10.05;;;;;;;13.70;23.47;103036.95;5093022;56;1140905;-71
2022/03/21 12:08:38;;;;;;;13.00;8.80;;;;;;;13.77;23.95;103024.17;5080862;56;1143065;-72
2022/03/21 12:13:50;;;;;;;15.93;9.60;;;;;;;13.82;23.96;103019.02;5060707;56;1140984;-71
2022/03/21 12:19:04;;;;;;;18.33;9.57;;;;;;;13.86;24.10;103009.95;5060785;56;1141291;-71
2022/03/21 12:24:16;;;;;;;16.10;9.63;;;;;;;13.97;24.91;103006.26;5121731;56;1141232;-71
2022/03/21 12:29:33;;;;;;;21.33;9.73;;;;;;;14.08;23.92;103009.20;5133390;55;1141424;-70
2022/03/21 12:34:40;;;;;;;14.80;10.40;;;;;;;14.17;23.99;103005.22;5133655;56;1141024;-70
2022/03/21 12:39:50;;;;;;;14.07;8.43;;;;;;;14.23;24.10;102998.22;5130455;55;1143112;-71
2022/03/21 12:44:56;;;;;;;15.43;9.17;;;;;;;14.26;23.31;103002.52;5130049;56;1141003;-71
2022/03/21 12:50:05;;;;;;;14.97;9.23;;;;;;;14.32;24.69;102990.22;5140786;55;1141058;-71
2022/03/21 12:55:16;;;;;;;12.05;8.53;;;;;;;14.28;23.51;102982.87;5131229;56;1141002;-71
2022/03/21 13:00:26;;;;;;;14.20;9.28;;;;;;;14.35;23.56;102972.29;5129449;56;1141047;-71
2022/03/21 13:11:05;;;;;;;12.00;8.33;;;;;;;14.30;23.77;102981.45;5140946;56;1140786;-71
2022/03/21 13:16:10;;;;;;;21.15;11.43;;;;;;;14.34;23.47;102965.71;5144429;56;1140792;-70
2022/03/21 13:21:18;;;;;;;13.97;8.50;;;;;;;14.47;22.97;102966.79;5145083;56;1143021;-71
2022/03/21 13:26:28;;;;;;;15.13;9.60;;;;;;;14.49;22.98;102967.56;5152689;56;1140819;-70
2022/03/21 13:31:34;;;;;;;12.63;7.37;;;;;;;14.46;23.39;102954.41;5153522;56;1140999;-71
2022/03/21 13:36:44;;;;;;;12.97;8.93;;;;;;;14.60;23.53;102948.32;5152790;56;1141185;-71
2022/03/21 13:42:05;;;;;;;13.43;9.60;;;;;;;14.70;23.48;102952.17;5153466;56;1140965;-71
2022/03/21 13:47:19;;;;;;;14.00;7.33;;;;;;;14.71;23.34;102945.44;5152879;56;1141289;-71
2022/03/21 13:52:53;;;;;;;19.02;8.13;;;;;;;14.76;22.52;102939.38;5153216;56;1141103;-71
2022/03/21 13:58:01;;;;;;;;;;;;;;;14.79;23.65;102929.03;5155670;56;1141103;-72
2022/03/21 14:03:09;;;;;;;11.03;8.00;;;;;;;14.83;22.75;102923.89;5174111;56;976297;-72
2022/03/21 14:08:25;;;;;;;13.20;7.70;;;;;;;14.77;22.12;102925.12;5151995;55;1138821;-72
2022/03/21 14:13:32;;;;;;;18.07;7.63;;;;;;;14.70;22.65;102922.41;5152511;56;1141172;-72
2022/03/21 14:18:42;;;;;;;12.45;7.28;;;;;;;14.74;23.78;102919.95;5152303;56;1141007;-72
2022/03/21 14:23:48;;;;;;;18.62;9.15;;;;;;;14.84;22.41;102916.75;5146528;55;1140919;-72
2022/03/21 14:28:53;;;;;;;12.93;7.83;;;;;;;14.88;23.27;102907.65;5144179;55;1140970;-72
2022/03/21 14:33:59;;;;;;;104.03;22.57;;;;;;;14.74;21.97;102902.64;5147921;56;1140965;-72
2022/03/21 14:39:05;;;;;;;18.13;9.57;;;;;;;14.69;23.01;102892.72;5140513;56;1145087;-72
2022/03/21 14:44:11;;;;;;;16.57;10.20;;;;;;;14.71;22.44;102894.82;5151360;55;1141082;-72
2022/03/21 14:49:16;;;;;;;15.90;9.08;;;;;;;14.74;22.85;102887.13;5141695;56;1143087;-72
2022/03/21 14:54:23;;;;;;;23.77;11.70;;;;;;;14.72;22.56;102871.23;5143749;56;1140964;-72
2022/03/21 14:59:29;;;;;;;13.50;9.00;;;;;;;14.75;23.65;102875.53;5140335;55;1142975;-71
2022/03/21 15:04:35;;;;;;;16.83;9.47;;;;;;;14.68;23.30;102864.36;5143340;54;1141300;-71
2022/03/21 15:15:07;;;;;;;18.57;10.63;;;;;;;14.56;23.70;102860.21;5142624;56;1140896;-71
2022/03/21 15:20:14;;;;;;;20.12;10.23;;;;;;;14.47;23.71;102858.95;5142714;56;1142953;-72
2022/03/21 15:25:22;;;;;;;41.17;11.87;;;;;;;14.42;23.41;102859.20;5145181;55;1143030;-72
2022/03/21 15:30:28;;;;;;;26.20;13.00;;;;;;;14.38;23.70;102856.75;5140030;55;1143182;-72
2022/03/21 15:35:34;;;;;;;36.53;18.30;;;;;;;14.31;24.21;102849.60;5147895;56;1143044;-72
2022/03/21 15:46:06;;;;;;;18.15;12.47;;;;;;;14.34;24.54;102849.91;5131372;56;1142985;-72
2022/03/21 15:51:11;;;;;;;28.67;16.97;;;;;;;14.27;24.62;102849.85;5064739;56;1151517;-72
2022/03/21 15:56:18;;;;;;;21.65;12.43;;;;;;;14.23;24.97;102849.16;5056298;57;1143134;-72
2022/03/21 16:01:23;;;;;;;63.07;38.23;;;;;;;14.19;25.32;102844.97;4978392;56;1143067;-72
2022/03/21 16:06:29;;;;;;;30.40;18.73;;;;;;;14.21;25.57;102847.52;5066360;56;1143131;-72
2022/03/21 16:11:35;;;;;;;25.83;16.07;;;;;;;14.20;25.13;102837.38;5101386;55;1142930;-72
2022/03/21 16:16:41;;;;;;;26.13;12.93;;;;;;;14.14;25.43;102842.17;5149640;54;1143186;-71
2022/03/21 16:21:47;;;;;;;20.27;12.27;;;;;;;14.05;25.38;102837.73;5144294;55;1142877;-71
2022/03/21 16:26:55;;;;;;;23.50;12.00;;;;;;;13.97;25.65;102844.42;5127123;55;1242177;-72
2022/03/21 16:32:08;;;;;;;32.87;12.47;;;;;;;13.90;25.84;102846.55;5148513;55;1143026;-71
2022/03/21 16:37:15;;;;;;;30.32;15.93;;;;;;;13.80;26.17;102848.00;5142742;55;1143050;-72
2022/03/21 16:42:22;;;;;;;21.90;12.53;;;;;;;13.71;26.31;102844.05;5140540;55;1143085;-72
2022/03/21 16:47:28;;;;;;;32.03;15.20;;;;;;;13.59;26.57;102842.53;5099200;55;1143195;-72
2022/03/21 16:52:34;;;;;;;42.50;17.87;;;;;;;13.47;26.89;102840.49;5130068;55;1143210;-71
2022/03/21 16:57:39;;;;;;;52.43;25.43;;;;;;;13.32;26.86;102840.36;5115693;56;1143196;-71
2022/03/21 17:02:46;;;;;;;80.57;41.50;;;;;;;13.20;27.23;102840.14;5133401;55;1143187;-71
2022/03/21 17:07:55;;;;;;;41.10;22.43;;;;;;;13.09;27.77;102836.69;5130180;55;1143050;-71
2022/03/21 17:12:59;;;;;;;59.27;25.00;;;;;;;12.99;27.77;102838.93;5130592;55;1258639;-71
2022/03/21 17:23:28;;;;;;;183.52;80.32;;;;;;;12.79;28.30;102837.77;5140348;55;1147323;-71
2022/03/21 17:28:35;;;;;;;74.05;30.32;;;;;;;12.74;28.59;102828.30;5136414;55;1145319;-70
2022/03/21 17:33:42;;;;;;;73.30;32.95;;;;;;;12.67;28.88;102833.08;5144945;55;1142975;-71
2022/03/21 17:38:47;;;;;;;98.60;35.50;;;;;;;12.59;29.21;102836.56;5146763;56;1143229;-71
2022/03/21 17:43:53;;;;;;;88.43;36.60;;;;;;;12.52;29.46;102841.33;5123269;56;1143120;-71
2022/03/21 17:48:58;;;;;;;175.27;79.83;;;;;;;12.42;29.74;102849.79;5120605;55;1143131;-70
2022/03/21 17:54:05;;;;;;;151.20;66.43;;;;;;;12.12;30.15;102849.45;5110265;55;1145185;-71
2022/03/21 17:59:11;;;;;;;142.33;50.87;;;;;;;11.82;30.71;102858.36;5141184;55;1145099;-70
2022/03/21 18:04:17;;;;;;;138.17;44.00;;;;;;;11.52;31.26;102854.80;5136958;55;1145252;-70
2022/03/21 18:09:24;;;;;;;96.70;34.57;;;;;;;11.28;31.70;102859.41;5190405;55;1145383;-70
2022/03/21 18:14:30;;;;;;;104.87;26.13;;;;;;;11.03;32.19;102855.20;5244553;55;1143063;-69
2022/03/21 18:24:45;;;;;;;104.90;25.93;;;;;;;10.52;32.93;102873.64;5227935;55;1145218;-70
2022/03/21 18:29:52;;;;;;;120.13;45.83;;;;;;;10.32;33.49;102871.77;5206995;55;1145308;-70
2022/03/21 18:34:58;;;;;;;75.53;21.37;;;;;;;10.25;34.02;102873.38;5104845;55;1145261;-70
2022/03/21 18:40:05;;;;;;;181.40;74.83;;;;;;;10.13;34.43;102881.30;4804513;59;1143129;-72
2022/03/21 18:45:19;;;;;;;209.72;102.65;;;;;;;9.98;34.60;102880.09;4669100;61;1145401;-71
2022/03/21 18:50:25;;;;;;;262.00;134.30;;;;;;;9.83;34.86;102884.17;4804459;57;1143066;-70
2022/03/21 18:55:31;;;;;;;263.30;123.53;;;;;;;9.74;35.33;102871.77;5070757;56;1143284;-70
2022/03/21 19:00:37;;;;;;;222.70;106.50;;;;;;;9.57;35.80;102878.11;5077555;55;1143321;-70
2022/03/21 19:05:42;;;;;;;144.47;67.73;;;;;;;9.28;36.32;102883.09;5010086;55;1143007;-70
2022/03/21 19:10:48;;;;;;;102.80;37.53;;;;;;;9.12;36.98;102886.72;5097078;56;1141250;-70
2022/03/21 19:15:54;;;;;;;142.83;59.23;;;;;;;9.02;37.57;102889.23;5040828;56;1141319;-70
2022/03/21 19:21:00;;;;;;;217.57;107.97;;;;;;;8.88;38.22;102883.09;5039900;54;1141010;-70
2022/03/21 19:26:06;;;;;;;195.63;84.07;;;;;;;8.75;38.68;102887.05;5131761;55;1142956;-71
2022/03/21 19:31:12;;;;;;;134.77;63.70;;;;;;;8.65;38.65;102886.95;5141371;55;1150423;-70
2022/03/21 19:36:18;;;;;;;140.47;69.53;;;;;;;8.55;38.52;102898.72;5140896;55;1141088;-71
2022/03/21 19:41:24;;;;;;;167.93;87.35;;;;;;;8.45;38.72;102898.12;5076568;55;1140927;-69
2022/03/21 19:46:29;;;;;;;159.00;72.87;;;;;;;8.41;39.11;102899.11;5090126;55;1141017;-69
2022/03/21 19:51:37;;;;;;;119.27;47.37;;;;;;;8.34;39.49;102896.27;5136662;56;1140960;-70
2022/03/21 19:56:43;;;;;;;127.10;58.93;;;;;;;8.25;39.84;102893.41;5147297;55;1141080;-71
2022/03/21 20:01:49;;;;;;;142.93;71.63;;;;;;;8.22;39.75;102901.43;5102029;56;1140818;-70
2022/03/21 20:06:56;;;;;;;169.00;88.53;;;;;;;8.24;39.80;102906.20;5118032;55;1140774;-71
2022/03/21 20:12:01;;;;;;;189.82;101.35;;;;;;;8.23;39.98;102906.25;5128178;55;1140662;-71
2022/03/21 20:17:07;;;;;;;174.90;89.43;;;;;;;8.15;40.00;102901.19;5137873;55;1143079;-70
2022/03/21 20:22:15;;;;;;;134.70;62.13;;;;;;;8.06;40.18;102900.16;5137527;55;1142642;-70
2022/03/21 20:27:22;;;;;;;139.22;61.60;;;;;;;7.97;40.12;102901.27;5137674;55;1140790;-70
2022/03/21 20:32:27;;;;;;;109.85;50.03;;;;;;;7.91;40.29;102904.09;5144206;55;1140838;-71
2022/03/21 20:37:33;;;;;;;108.90;45.87;;;;;;;7.89;40.45;102909.86;5148312;55;1140997;-71
2022/03/21 20:42:41;;;;;;;100.63;46.97;;;;;;;7.92;40.40;102910.23;5169206;55;1140827;-70
2022/03/21 20:47:47;;;;;;;105.47;49.13;;;;;;;7.91;40.34;102910.69;5202456;55;1140962;-71
2022/03/21 20:52:54;;;;;;;114.22;49.93;;;;;;;7.92;40.41;102916.36;5147653;55;1140862;-71
2022/03/21 20:58:00;;;;;;;119.90;53.17;;;;;;;7.91;40.37;102908.50;5146558;56;1141043;-70
2022/03/21 21:03:07;;;;;;;132.43;58.17;;;;;;;7.86;40.51;102907.30;5146658;56;1142701;-71
2022/03/21 21:08:17;;;;;;;144.35;60.48;;;;;;;7.81;40.78;102907.87;5156581;55;1141139;-72
2022/03/21 21:13:24;;;;;;;193.03;78.33;;;;;;;7.73;40.89;102907.23;5122206;55;1140852;-70
2022/03/21 21:18:32;;;;;;;191.97;75.83;;;;;;;7.66;41.03;102895.99;5133067;56;1140890;-72
2022/03/21 21:23:38;;;;;;;180.80;77.57;;;;;;;7.60;41.30;102902.77;5149768;55;1140803;-71
2022/03/21 21:28:44;;;;;;;158.93;64.63;;;;;;;7.52;41.58;102902.54;5147480;55;1140760;-70
2022/03/21 21:33:50;;;;;;;128.90;52.13;;;;;;;7.31;42.17;102898.73;5145812;55;1141021;-69
2022/03/21 21:38:56;;;;;;;132.13;48.07;;;;;;;7.09;42.78;102891.82;5129359;55;1141153;-70
2022/03/21 21:44:03;;;;;;;136.40;56.90;;;;;;;6.93;43.52;102895.73;5141665;54;1141098;-70
2022/03/21 21:49:09;;;;;;;119.40;50.73;;;;;;;6.79;43.97;102898.70;5146457;55;1245978;-70
2022/03/21 21:54:15;;;;;;;99.93;45.90;;;;;;;6.66;44.28;102900.76;5128141;56;1140709;-70
2022/03/21 21:59:20;;;;;;;114.42;48.70;;;;;;;6.56;44.35;102897.94;5150479;55;1138856;-69
2022/03/21 22:04:26;;;;;;;140.18;56.75;;;;;;;6.49;44.53;102891.52;5151415;56;1140826;-70
2022/03/21 22:09:32;;;;;;;85.07;35.90;;;;;;;6.43;44.35;102890.33;5150407;55;1140989;-69
2022/03/21 22:14:41;;;;;;;77.50;32.67;;;;;;;6.35;44.37;102890.52;5150590;56;1138846;-70
2022/03/21 22:19:45;;;;;;;74.20;33.07;;;;;;;6.32;44.21;102892.77;5149739;55;1138782;-70
2022/03/21 22:24:53;;;;;;;79.17;30.00;;;;;;;6.33;44.06;102886.61;5146559;56;1138705;-70
2022/03/21 22:30:00;;;;;;;64.17;28.47;;;;;;;6.34;44.01;102888.79;5150285;55;1138775;-70
2022/03/21 22:35:07;;;;;;;75.40;30.90;;;;;;;6.35;43.95;102882.64;5150296;56;1138666;-70
2022/03/21 22:51:01;;;;;;;76.20;32.73;;;;;;;6.32;43.79;102894.52;5143778;55;1138748;-69
2022/03/21 22:56:07;;;;;;;73.77;29.53;;;;;;;6.30;43.83;102887.98;5146181;55;1138746;-70
2022/03/21 23:01:13;;;;;;;65.75;30.75;;;;;;;6.28;43.88;102888.91;5138763;55;1138768;-69
2022/03/21 23:06:19;;;;;;;69.37;28.53;;;;;;;6.26;43.93;102887.63;5143836;55;1138893;-70
2022/03/21 23:11:25;;;;;;;83.75;31.12;;;;;;;6.25;44.12;102891.63;5148492;55;1138896;-70
2022/03/21 23:16:31;;;;;;;69.03;29.63;;;;;;;6.21;43.98;102897.84;5147304;56;1138808;-69
2022/03/21 23:21:37;;;;;;;60.33;28.03;;;;;;;6.18;44.07;102892.20;5143231;56;1138890;-70
2022/03/21 23:26:46;;;;;;;63.87;29.37;;;;;;;6.18;44.02;102892.64;5147535;55;1138801;-69
2022/03/21 23:31:52;;;;;;;76.50;32.67;;;;;;;6.18;44.02;102894.83;5146063;55;1138644;-70
2022/03/21 23:36:57;;;;;;;71.93;30.57;;;;;;;6.17;44.05;102893.09;5144987;55;1138846;-70
2022/03/21 23:42:21;;;;;;;72.93;28.73;;;;;;;6.13;44.09;102900.62;5147146;55;1138621;-70
2022/03/21 23:47:26;;;;;;;62.40;28.95;;;;;;;6.05;44.30;102897.75;5147700;56;1138937;-70
2022/03/21 23:52:32;;;;;;;71.97;27.13;;;;;;;5.97;44.54;102893.50;5109698;55;1138806;-69